Time,TemperatureF,DewpointF,PressureIn,WindDirection,WindDirectionDegrees,WindSpeedMPH,WindSpeedGustMPH,Humidity,HourlyPrecipIn,Conditions,Clouds,dailyrainin,SoftwareType,DateUTC
2013-04-10 00:00:00,37.9,32.6,29.30,ESE,112,0.0,0.0,81,0.00,CLR,SKC,0.00,WeatherDisplay:10.37,2013-04-09 23:00:00,
2013-04-10 00:05:00,37.8,32.5,29.30,East,90,0.0,0.0,81,0.00,CLR,SKC,0.00,WeatherDisplay:10.37,2013-04-09 23:05:00,
2013-04-10 00:10:00,37.6,32.3,29.30,East,90,0.0,0.0,81,0.00,CLR,SKC,0.00,WeatherDisplay:10.37,2013-04-09 23:10:00,
2013-04-10 00:15:00,37.2,31.9,29.30,ENE,68,0.0,0.0,81,0.00,CLR,SKC,0.00,WeatherDisplay:10.37,2013-04-09 23:15:00,
2013-04-10 00:20:00,37.2,31.9,29.29,East,90,0.0,0.0,81,0.00,CLR,SKC,0.00,WeatherDisplay:10.37,2013-04-09 23:20:00,
2013-04-10 00:25:00,37.0,31.8,29.29,East,90,0.0,0.0,81,0.00,CLR,SKC,0.00,WeatherDisplay:10.37,2013-04-09 23:25:00,
2013-04-10 00:30:00,36.7,31.7,29.29,East,90,0.0,0.0,82,0.00,CLR,SKC,0.00,WeatherDisplay:10.37,2013-04-09 23:30:00,
2013-04-10 00:35:00,36.3,31.4,29.30,East,90,0.0,0.0,82,0.00,CLR,SKC,0.00,WeatherDisplay:10.37,2013-04-09 23:35:00,
2013-04-10 00:40:00,36.1,31.2,29.29,East,90,0.0,0.0,82,0.00,CLR,SKC,0.00,WeatherDisplay:10.37,2013-04-09 23:40:00,
2013-04-10 00:45:00,36.0,31.0,29.30,East,90,0.0,0.0,82,0.00,CLR,SKC,0.00,WeatherDisplay:10.37,2013-04-09 23:45:00,
2013-04-10 00:50:00,35.8,30.8,29.30,East,90,0.0,0.0,82,0.00,CLR,SKC,0.00,WeatherDisplay:10.37,2013-04-09 23:50:00,
2013-04-10 00:55:00,35.4,30.5,29.29,East,90,0.0,0.0,82,0.00,CLR,SKC,0.00,WeatherDisplay:10.37,2013-04-09 23:55:00,
2013-04-10 01:00:00,35.2,30.6,29.29,East,90,0.0,0.0,83,0.00,CLR,SKC,0.00,WeatherDisplay:10.37,2013-04-10 00:00:00,
2013-04-10 01:05:00,35.2,30.6,29.29,East,90,0.0,0.0,83,0.00,CLR,SKC,0.00,WeatherDisplay:10.37,2013-04-10 00:05:00,
2013-04-10 01:10:00,35.2,30.6,29.29,East,90,0.0,0.0,83,0.00,CLR,SKC,0.00,WeatherDisplay:10.37,2013-04-10 00:10:00,
2013-04-10 01:16:00,35.2,30.9,29.29,East,90,0.0,0.0,84,0.00,CLR,SKC,0.00,WeatherDisplay:10.37,2013-04-10 00:16:00,
2013-04-10 01:21:00,35.2,30.9,29.29,East,90,0.0,0.0,84,0.00,CLR,SKC,0.00,WeatherDisplay:10.37,2013-04-10 00:21:00,
2013-04-10 01:26:00,35.4,31.1,29.29,East,90,0.0,0.0,84,0.00,CLR,SKC,0.00,WeatherDisplay:10.37,2013-04-10 00:26:00,
2013-04-10 01:31:00,35.8,31.1,29.30,East,90,0.0,0.0,83,0.00,CLR,SKC,0.00,WeatherDisplay:10.37,2013-04-10 00:31:00,
2013-04-10 01:36:00,35.8,31.1,29.29,East,90,0.0,0.0,83,0.00,CLR,SKC,0.00,WeatherDisplay:10.37,2013-04-10 00:36:00,
2013-04-10 01:41:00,36.0,31.3,29.29,East,90,0.0,0.0,83,0.00,CLR,SKC,0.00,WeatherDisplay:10.37,2013-04-10 00:41:00,
2013-04-10 01:46:00,35.8,31.1,29.29,East,90,0.0,0.0,83,0.00,CLR,SKC,0.00,WeatherDisplay:10.37,2013-04-10 00:46:00,
2013-04-10 01:51:00,35.8,31.1,29.29,East,90,0.0,0.0,83,0.00,CLR,SKC,0.00,WeatherDisplay:10.37,2013-04-10 00:51:00,
2013-04-10 01:56:00,35.4,30.8,29.29,East,90,0.0,0.0,83,0.00,CLR,SKC,0.00,WeatherDisplay:10.37,2013-04-10 00:56:00,
2013-04-10 02:01:00,35.4,30.8,29.29,East,90,0.0,0.0,83,0.00,CLR,SKC,0.00,WeatherDisplay:10.37,2013-04-10 01:01:00,
2013-04-10 02:06:00,35.2,30.6,29.29,East,90,0.0,0.0,83,0.00,CLR,SKC,0.00,WeatherDisplay:10.37,2013-04-10 01:06:00,
2013-04-10 02:11:00,35.2,30.6,29.29,East,90,0.0,0.0,83,0.00,CLR,SKC,0.00,WeatherDisplay:10.37,2013-04-10 01:11:00,
2013-04-10 02:16:00,35.2,30.9,29.29,ESE,112,0.0,0.0,84,0.00,CLR,SKC,0.00,WeatherDisplay:10.37,2013-04-10 01:16:00,
2013-04-10 02:22:00,35.4,31.4,29.29,ESE,112,0.0,0.0,85,0.00,CLR,SKC,0.00,WeatherDisplay:10.37,2013-04-10 01:22:00,
2013-04-10 02:27:00,35.4,31.4,29.28,ESE,112,0.0,0.0,85,0.00,CLR,SKC,0.00,WeatherDisplay:10.37,2013-04-10 01:27:00,
2013-04-10 02:32:00,35.8,32.0,29.29,ENE,68,0.0,0.0,86,0.00,CLR,SKC,0.00,WeatherDisplay:10.37,2013-04-10 01:32:00,
2013-04-10 02:37:00,35.8,32.0,29.29,ENE,68,0.0,0.0,86,0.00,CLR,SKC,0.00,WeatherDisplay:10.37,2013-04-10 01:37:00,
2013-04-10 02:42:00,35.8,32.0,29.29,ESE,112,0.0,0.0,86,0.00,CLR,SKC,0.00,WeatherDisplay:10.37,2013-04-10 01:42:00,
2013-04-10 02:47:00,36.1,32.4,29.28,East,90,0.0,0.0,86,0.00,CLR,SKC,0.00,WeatherDisplay:10.37,2013-04-10 01:47:00,
2013-04-10 02:52:00,36.1,32.4,29.28,East,90,0.0,0.0,86,0.00,CLR,SKC,0.00,WeatherDisplay:10.37,2013-04-10 01:52:00,
2013-04-10 02:57:00,36.3,32.5,29.28,SE,135,0.0,0.0,86,0.00,CLR,SKC,0.00,WeatherDisplay:10.37,2013-04-10 01:57:00,
2013-04-10 03:02:00,36.1,32.4,29.28,ESE,112,0.0,0.0,86,0.00,CLR,SKC,0.00,WeatherDisplay:10.37,2013-04-10 02:02:00,
2013-04-10 03:07:00,36.1,32.4,29.29,ESE,112,0.0,0.0,86,0.00,CLR,SKC,0.00,WeatherDisplay:10.37,2013-04-10 02:07:00,
2013-04-10 03:12:00,36.0,32.2,29.28,ESE,112,0.0,0.0,86,0.00,CLR,SKC,0.00,WeatherDisplay:10.37,2013-04-10 02:12:00,
2013-04-10 03:17:00,35.8,32.0,29.28,ESE,112,0.0,0.0,86,0.00,CLR,SKC,0.00,WeatherDisplay:10.37,2013-04-10 02:17:00,
2013-04-10 03:23:00,35.4,31.6,29.28,ESE,112,0.0,0.0,86,0.00,CLR,SKC,0.00,WeatherDisplay:10.37,2013-04-10 02:23:00,
2013-04-10 03:28:00,34.9,30.8,29.28,ESE,112,0.0,0.0,85,0.00,CLR,SKC,0.00,WeatherDisplay:10.37,2013-04-10 02:28:00,
2013-04-10 03:33:00,34.7,30.9,29.28,East,90,0.0,0.0,86,0.00,CLR,SKC,0.00,WeatherDisplay:10.37,2013-04-10 02:33:00,
2013-04-10 03:38:00,34.7,30.9,29.28,East,90,0.0,0.0,86,0.00,CLR,SKC,0.00,WeatherDisplay:10.37,2013-04-10 02:38:00,
2013-04-10 03:43:00,34.5,30.8,29.28,ESE,112,0.0,0.0,86,0.00,CLR,SKC,0.00,WeatherDisplay:10.37,2013-04-10 02:43:00,
2013-04-10 03:48:00,34.3,30.6,29.29,ESE,112,0.0,0.0,86,0.00,CLR,SKC,0.00,WeatherDisplay:10.37,2013-04-10 02:48:00,
2013-04-10 03:53:00,34.3,30.6,29.29,ESE,112,0.0,0.0,86,0.00,CLR,SKC,0.00,WeatherDisplay:10.37,2013-04-10 02:53:00,
2013-04-10 03:58:00,34.3,30.6,29.28,East,90,0.0,0.0,86,0.00,CLR,SKC,0.00,WeatherDisplay:10.37,2013-04-10 02:58:00,
2013-04-10 04:03:00,34.3,30.6,29.28,East,90,0.0,0.0,86,0.00,CLR,SKC,0.00,WeatherDisplay:10.37,2013-04-10 03:03:00,
2013-04-10 04:08:00,34.3,30.6,29.28,ENE,68,0.0,0.0,86,0.00,CLR,SKC,0.00,WeatherDisplay:10.37,2013-04-10 03:08:00,
2013-04-10 04:13:00,34.3,30.9,29.28,ENE,68,0.0,0.0,87,0.00,CLR,SKC,0.00,WeatherDisplay:10.37,2013-04-10 03:13:00,
2013-04-10 04:18:00,34.5,30.8,29.29,East,90,0.0,0.0,86,0.00,CLR,SKC,0.00,WeatherDisplay:10.37,2013-04-10 03:18:00,
2013-04-10 04:23:00,34.9,31.1,29.28,East,90,0.0,0.0,86,0.00,CLR,SKC,0.00,WeatherDisplay:10.37,2013-04-10 03:23:00,
2013-04-10 04:28:00,35.2,31.5,29.28,East,90,0.0,0.0,86,0.00,CLR,SKC,0.00,WeatherDisplay:10.37,2013-04-10 03:28:00,
2013-04-10 04:33:00,35.4,31.6,29.28,East,90,0.0,0.0,86,0.00,CLR,SKC,0.00,WeatherDisplay:10.37,2013-04-10 03:33:00,
2013-04-10 04:38:00,35.2,31.5,29.28,East,90,0.0,0.0,86,0.00,CLR,SKC,0.00,WeatherDisplay:10.37,2013-04-10 03:38:00,
2013-04-10 04:43:00,35.2,31.5,29.28,East,90,0.0,0.0,86,0.00,CLR,SKC,0.00,WeatherDisplay:10.37,2013-04-10 03:43:00,
2013-04-10 04:48:00,35.4,31.6,29.29,ESE,112,0.0,0.0,86,0.00,CLR,SKC,0.00,WeatherDisplay:10.37,2013-04-10 03:48:00,
2013-04-10 04:53:00,35.4,31.6,29.29,ESE,112,0.0,0.0,86,0.00,CLR,SKC,0.00,WeatherDisplay:10.37,2013-04-10 03:53:00,
2013-04-10 04:58:00,35.4,31.6,29.29,ESE,112,0.0,0.0,86,0.00,CLR,SKC,0.00,WeatherDisplay:10.37,2013-04-10 03:58:00,
2013-04-10 05:00:00,35.4,31.6,29.29,ESE,112,0.0,0.0,86,0.00,CLR,SKC,0.00,WeatherDisplay:10.37,2013-04-10 04:00:00,
2013-04-10 05:05:00,35.4,31.6,29.28,ESE,112,0.0,0.0,86,0.00,CLR,SKC,0.00,WeatherDisplay:10.37,2013-04-10 04:05:00,
2013-04-10 05:10:00,35.2,31.5,29.28,ESE,112,0.0,0.0,86,0.00,CLR,SKC,0.00,WeatherDisplay:10.37,2013-04-10 04:10:00,
2013-04-10 05:15:00,35.2,31.5,29.28,ESE,112,0.0,0.0,86,0.00,CLR,SKC,0.00,WeatherDisplay:10.37,2013-04-10 04:15:00,
2013-04-10 05:20:00,35.4,31.6,29.28,ESE,112,0.0,0.0,86,0.00,CLR,SKC,0.00,WeatherDisplay:10.37,2013-04-10 04:20:00,
2013-04-10 05:25:00,35.8,32.0,29.28,ESE,112,0.0,0.0,86,0.00,CLR,SKC,0.00,WeatherDisplay:10.37,2013-04-10 04:25:00,
2013-04-10 05:30:00,36.0,32.2,29.28,ESE,112,0.0,0.0,86,0.00,CLR,SKC,0.00,WeatherDisplay:10.37,2013-04-10 04:30:00,
2013-04-10 05:36:00,36.1,32.4,29.28,East,90,0.0,0.0,86,0.00,CLR,SKC,0.00,WeatherDisplay:10.37,2013-04-10 04:36:00,
2013-04-10 05:41:00,36.0,31.9,29.28,ESE,112,0.0,0.0,85,0.00,CLR,SKC,0.00,WeatherDisplay:10.37,2013-04-10 04:41:00,
2013-04-10 05:46:00,36.0,31.9,29.27,ENE,68,0.0,0.0,85,0.00,CLR,SKC,0.00,WeatherDisplay:10.37,2013-04-10 04:46:00,
2013-04-10 05:51:00,35.8,31.7,29.28,ENE,68,0.0,0.0,85,0.00,CLR,SKC,0.00,WeatherDisplay:10.37,2013-04-10 04:51:00,
2013-04-10 05:56:00,35.2,31.2,29.28,ENE,68,0.0,0.0,85,0.00,CLR,SKC,0.00,WeatherDisplay:10.37,2013-04-10 04:56:00,
2013-04-10 06:01:00,35.1,31.0,29.28,ENE,68,0.0,0.0,85,0.00,CLR,SKC,0.00,WeatherDisplay:10.37,2013-04-10 05:01:00,
2013-04-10 06:07:00,34.7,30.7,29.28,ENE,68,0.0,0.0,85,0.00,CLR,SKC,0.00,WeatherDisplay:10.37,2013-04-10 05:07:00,
2013-04-10 06:12:00,34.7,30.7,29.28,ENE,68,0.0,0.0,85,0.00,CLR,SKC,0.00,WeatherDisplay:10.37,2013-04-10 05:12:00,
2013-04-10 06:17:00,34.5,30.5,29.28,ENE,68,0.0,0.0,85,0.00,CLR,SKC,0.00,WeatherDisplay:10.37,2013-04-10 05:17:00,
2013-04-10 06:22:00,34.3,30.0,29.28,ENE,68,0.0,0.0,84,0.00,CLR,SKC,0.00,WeatherDisplay:10.37,2013-04-10 05:22:00,
2013-04-10 06:27:00,34.3,30.0,29.28,ENE,68,0.0,0.0,84,0.00,CLR,SKC,0.00,WeatherDisplay:10.37,2013-04-10 05:27:00,
2013-04-10 06:32:00,34.3,30.3,29.28,ENE,68,0.0,0.0,85,0.00,CLR,SKC,0.00,WeatherDisplay:10.37,2013-04-10 05:32:00,
2013-04-10 06:37:00,34.7,30.7,29.28,ENE,68,0.0,0.0,85,0.00,CLR,SKC,0.00,WeatherDisplay:10.37,2013-04-10 05:37:00,
2013-04-10 06:42:00,34.9,30.8,29.28,ENE,68,0.0,0.0,85,0.00,CLR,SKC,0.00,WeatherDisplay:10.37,2013-04-10 05:42:00,
2013-04-10 06:47:00,35.2,31.5,29.28,ENE,68,0.0,0.0,86,0.00,CLR,SKC,0.00,WeatherDisplay:10.37,2013-04-10 05:47:00,
2013-04-10 06:52:00,35.2,31.5,29.28,ENE,68,0.0,0.0,86,0.00,CLR,SKC,0.00,WeatherDisplay:10.37,2013-04-10 05:52:00,
2013-04-10 06:57:00,35.4,31.6,29.28,ENE,68,0.0,0.0,86,0.00,CLR,SKC,0.00,WeatherDisplay:10.37,2013-04-10 05:57:00,
2013-04-10 07:02:00,35.6,31.8,29.28,ENE,68,0.0,0.0,86,0.00,CLR,SKC,0.00,WeatherDisplay:10.37,2013-04-10 06:02:00,
2013-04-10 07:07:00,35.8,32.0,29.28,ENE,68,0.0,0.0,86,0.00,CLR,SKC,0.00,WeatherDisplay:10.37,2013-04-10 06:07:00,
2013-04-10 07:12:00,36.0,32.2,29.27,ENE,68,0.0,0.0,86,0.00,CLR,SKC,0.00,WeatherDisplay:10.37,2013-04-10 06:12:00,
2013-04-10 07:17:00,36.1,32.1,29.28,SSW,202,0.0,0.0,85,0.00,CLR,SKC,0.00,WeatherDisplay:10.37,2013-04-10 06:17:00,
2013-04-10 07:22:00,36.3,32.2,29.28,SSW,202,0.0,0.0,85,0.00,CLR,SKC,0.00,WeatherDisplay:10.37,2013-04-10 06:22:00,
2013-04-10 07:27:00,36.1,32.1,29.28,SE,135,0.0,0.0,85,0.00,CLR,SKC,0.00,WeatherDisplay:10.37,2013-04-10 06:27:00,
2013-04-10 07:32:00,36.0,31.9,29.28,SE,135,0.0,0.0,85,0.00,CLR,SKC,0.00,WeatherDisplay:10.37,2013-04-10 06:32:00,
2013-04-10 07:38:00,35.8,31.7,29.28,SE,135,0.0,0.0,85,0.00,CLR,SKC,0.00,WeatherDisplay:10.37,2013-04-10 06:38:00,
2013-04-10 07:43:00,36.0,31.9,29.28,SE,135,0.0,0.0,85,0.00,CLR,SKC,0.00,WeatherDisplay:10.37,2013-04-10 06:43:00,
2013-04-10 07:48:00,36.0,31.9,29.28,SE,135,0.0,0.0,85,0.00,CLR,SKC,0.00,WeatherDisplay:10.37,2013-04-10 06:48:00,
2013-04-10 07:53:00,36.0,31.9,29.29,SSE,158,0.0,0.0,85,0.00,CLR,SKC,0.00,WeatherDisplay:10.37,2013-04-10 06:53:00,
2013-04-10 07:58:00,36.3,32.5,29.28,South,180,0.0,0.0,86,0.00,CLR,SKC,0.00,WeatherDisplay:10.37,2013-04-10 06:58:00,
2013-04-10 08:03:00,36.3,32.5,29.28,South,180,0.0,0.0,86,0.02,RA,SKC,0.02,WeatherDisplay:10.37,2013-04-10 07:03:00,
2013-04-10 08:08:00,36.3,32.5,29.28,ESE,112,0.0,0.0,86,0.02,RA,SKC,0.02,WeatherDisplay:10.37,2013-04-10 07:08:00,
2013-04-10 08:13:00,36.7,33.2,29.28,ESE,112,0.0,0.0,87,0.02,,SKC,0.02,WeatherDisplay:10.37,2013-04-10 07:13:00,
2013-04-10 08:18:00,36.7,33.2,29.28,SE,135,0.0,0.0,87,0.02,CLR,SKC,0.02,WeatherDisplay:10.37,2013-04-10 07:18:00,
2013-04-10 08:23:00,36.7,33.2,29.28,SE,135,0.0,0.0,87,0.04,RA,SKC,0.04,WeatherDisplay:10.37,2013-04-10 07:23:00,
2013-04-10 08:28:00,36.7,33.2,29.28,SE,135,0.0,0.0,87,0.04,RA,SKC,0.04,WeatherDisplay:10.37,2013-04-10 07:28:00,
2013-04-10 08:33:00,36.7,33.2,29.28,SE,135,0.0,0.0,87,0.04,CLR,SKC,0.04,WeatherDisplay:10.37,2013-04-10 07:33:00,
2013-04-10 08:38:00,36.9,33.6,29.28,SE,135,0.0,0.0,88,0.06,RA,SKC,0.06,WeatherDisplay:10.37,2013-04-10 07:38:00,
2013-04-10 08:43:00,37.2,34.0,29.28,SE,135,0.0,0.0,88,0.06,RA,SKC,0.06,WeatherDisplay:10.37,2013-04-10 07:43:00,
2013-04-10 08:48:00,37.2,34.0,29.28,SE,135,0.0,0.0,88,0.06,CLR,SKC,0.06,WeatherDisplay:10.37,2013-04-10 07:48:00,
2013-04-10 08:53:00,37.2,34.0,29.28,SE,135,0.0,0.0,88,0.06,CLR,SKC,0.06,WeatherDisplay:10.37,2013-04-10 07:53:00,
2013-04-10 08:58:00,37.2,34.0,29.28,SE,135,0.0,0.0,88,0.06,CLR,SKC,0.06,WeatherDisplay:10.37,2013-04-10 07:58:00,
2013-04-10 09:03:00,37.6,34.3,29.28,SE,135,0.0,0.0,88,0.04,CLR,SKC,0.06,WeatherDisplay:10.37,2013-04-10 08:03:00,
2013-04-10 09:08:00,37.8,34.5,29.28,SE,135,0.0,0.0,88,0.04,CLR,SKC,0.06,WeatherDisplay:10.37,2013-04-10 08:08:00,
2013-04-10 09:13:00,38.7,35.7,29.28,ESE,112,0.0,0.0,89,0.04,CLR,SKC,0.06,WeatherDisplay:10.37,2013-04-10 08:13:00,
2013-04-10 09:18:00,39.0,35.8,29.27,ESE,112,0.0,0.0,88,0.04,CLR,SKC,0.06,WeatherDisplay:10.37,2013-04-10 08:18:00,
2013-04-10 09:23:00,39.4,36.1,29.28,ESE,112,0.0,0.0,88,0.02,CLR,SKC,0.06,WeatherDisplay:10.37,2013-04-10 08:23:00,
2013-04-10 09:28:00,39.9,36.7,29.28,SE,135,0.0,0.0,88,0.02,CLR,SKC,0.06,WeatherDisplay:10.37,2013-04-10 08:28:00,
2013-04-10 09:33:00,40.1,36.5,29.28,ESE,112,0.0,0.0,87,0.02,CLR,SKC,0.06,WeatherDisplay:10.37,2013-04-10 08:33:00,
2013-04-10 09:38:00,40.3,36.7,29.28,East,90,0.0,0.0,87,0.00,CLR,SKC,0.06,WeatherDisplay:10.37,2013-04-10 08:38:00,
2013-04-10 09:43:00,40.5,36.6,29.28,East,90,0.0,0.0,86,0.00,CLR,SKC,0.06,WeatherDisplay:10.37,2013-04-10 08:43:00,
2013-04-10 09:48:00,40.6,36.5,29.28,SE,135,0.0,0.0,85,0.00,CLR,SKC,0.06,WeatherDisplay:10.37,2013-04-10 08:48:00,
2013-04-10 09:53:00,40.8,36.7,29.28,ESE,112,0.0,0.0,85,0.00,CLR,SKC,0.06,WeatherDisplay:10.37,2013-04-10 08:53:00,
2013-04-10 09:58:00,40.8,36.4,29.28,ESE,112,0.0,0.0,84,0.00,CLR,SKC,0.06,WeatherDisplay:10.37,2013-04-10 08:58:00,
2013-04-10 10:03:00,40.6,36.2,29.28,ESE,112,0.0,0.0,84,0.00,CLR,SKC,0.06,WeatherDisplay:10.37,2013-04-10 09:03:00,
2013-04-10 10:08:00,40.3,35.8,29.28,ESE,112,0.0,0.0,84,0.00,CLR,SKC,0.06,WeatherDisplay:10.37,2013-04-10 09:08:00,
2013-04-10 10:13:00,40.3,35.8,29.28,SE,135,0.0,0.0,84,0.00,CLR,SKC,0.06,WeatherDisplay:10.37,2013-04-10 09:13:00,
2013-04-10 10:18:00,40.1,35.7,29.28,SE,135,0.0,0.0,84,0.00,CLR,SKC,0.06,WeatherDisplay:10.37,2013-04-10 09:18:00,
2013-04-10 10:23:00,39.9,35.5,29.28,ESE,112,0.0,0.0,84,0.00,CLR,SKC,0.06,WeatherDisplay:10.37,2013-04-10 09:23:00,
2013-04-10 10:28:00,39.4,34.9,29.28,SE,135,0.0,0.0,84,0.00,CLR,SKC,0.06,WeatherDisplay:10.37,2013-04-10 09:28:00,
2013-04-10 10:33:00,39.4,35.2,29.28,ESE,112,0.0,0.0,85,0.00,CLR,SKC,0.06,WeatherDisplay:10.37,2013-04-10 09:33:00,
2013-04-10 10:38:00,39.4,35.2,29.28,SE,135,0.0,0.0,85,0.00,CLR,SKC,0.06,WeatherDisplay:10.37,2013-04-10 09:38:00,
2013-04-10 10:43:00,39.2,35.1,29.28,SE,135,0.0,0.0,85,0.00,CLR,SKC,0.06,WeatherDisplay:10.37,2013-04-10 09:43:00,
2013-04-10 10:48:00,39.0,34.9,29.28,ESE,112,0.0,0.0,85,0.00,CLR,SKC,0.06,WeatherDisplay:10.37,2013-04-10 09:48:00,
2013-04-10 10:53:00,39.0,34.9,29.28,ESE,112,0.0,0.0,85,0.00,CLR,SKC,0.06,WeatherDisplay:10.37,2013-04-10 09:53:00,
2013-04-10 10:58:00,39.0,35.2,29.28,ESE,112,0.0,0.0,86,0.00,CLR,SKC,0.06,WeatherDisplay:10.37,2013-04-10 09:58:00,
2013-04-10 11:03:00,39.0,35.2,29.28,ESE,112,0.0,0.0,86,0.00,CLR,SKC,0.06,WeatherDisplay:10.37,2013-04-10 10:03:00,
2013-04-10 11:08:00,39.7,35.9,29.28,ENE,68,0.0,0.0,86,0.00,CLR,SKC,0.06,WeatherDisplay:10.37,2013-04-10 10:08:00,
2013-04-10 11:13:00,39.9,36.1,29.28,ESE,112,0.0,0.0,86,0.00,CLR,SKC,0.06,WeatherDisplay:10.37,2013-04-10 10:13:00,
2013-04-10 11:18:00,39.9,36.1,29.28,ESE,112,0.0,0.0,86,0.00,CLR,SKC,0.06,WeatherDisplay:10.37,2013-04-10 10:18:00,
2013-04-10 11:23:00,40.3,36.4,29.28,ESE,112,0.0,0.0,86,0.00,CLR,SKC,0.06,WeatherDisplay:10.37,2013-04-10 10:23:00,
2013-04-10 11:28:00,40.6,36.8,29.27,ESE,112,0.0,0.0,86,0.00,CLR,SKC,0.06,WeatherDisplay:10.37,2013-04-10 10:28:00,
2013-04-10 11:33:00,40.6,36.8,29.27,East,90,0.0,0.0,86,0.00,CLR,SKC,0.06,WeatherDisplay:10.37,2013-04-10 10:33:00,
2013-04-10 11:38:00,40.8,36.7,29.27,ESE,112,0.0,0.0,85,0.00,CLR,SKC,0.06,WeatherDisplay:10.37,2013-04-10 10:38:00,
2013-04-10 11:43:00,40.8,36.7,29.27,SE,135,0.0,0.0,85,0.00,CLR,SKC,0.06,WeatherDisplay:10.37,2013-04-10 10:43:00,
2013-04-10 11:48:00,40.8,36.4,29.27,ESE,112,0.0,0.0,84,0.00,CLR,SKC,0.06,WeatherDisplay:10.37,2013-04-10 10:48:00,
2013-04-10 11:53:00,40.8,36.4,29.27,SE,135,0.0,0.0,84,0.00,CLR,SKC,0.06,WeatherDisplay:10.37,2013-04-10 10:53:00,
2013-04-10 11:58:00,40.8,36.1,29.27,SE,135,0.0,0.0,83,0.00,CLR,SKC,0.06,WeatherDisplay:10.37,2013-04-10 10:58:00,
2013-04-10 12:03:00,40.6,35.6,29.27,SE,135,0.0,0.0,82,0.00,CLR,SKC,0.06,WeatherDisplay:10.37,2013-04-10 11:03:00,
2013-04-10 12:09:00,40.5,35.1,29.27,SE,135,0.0,0.0,81,0.00,CLR,SKC,0.06,WeatherDisplay:10.37,2013-04-10 11:09:00,
2013-04-10 12:14:00,40.6,35.6,29.27,SE,135,0.0,0.0,82,0.00,CLR,SKC,0.06,WeatherDisplay:10.37,2013-04-10 11:14:00,
2013-04-10 12:19:00,40.8,35.4,29.27,ESE,112,0.0,0.0,81,0.00,CLR,SKC,0.06,WeatherDisplay:10.37,2013-04-10 11:19:00,
2013-04-10 12:24:00,41.2,35.5,29.27,East,90,0.0,0.0,80,0.00,CLR,SKC,0.06,WeatherDisplay:10.37,2013-04-10 11:24:00,
2013-04-10 12:29:00,41.4,35.7,29.26,ESE,112,0.0,0.0,80,0.00,CLR,SKC,0.06,WeatherDisplay:10.37,2013-04-10 11:29:00,
2013-04-10 12:34:00,41.5,35.8,29.26,SE,135,0.0,0.0,80,0.00,CLR,SKC,0.06,WeatherDisplay:10.37,2013-04-10 11:34:00,
2013-04-10 12:39:00,41.9,36.2,29.27,ESE,112,0.0,0.0,80,0.00,CLR,SKC,0.06,WeatherDisplay:10.37,2013-04-10 11:39:00,
2013-04-10 12:44:00,42.6,36.6,29.26,ESE,112,0.0,0.0,79,0.00,CLR,SKC,0.06,WeatherDisplay:10.37,2013-04-10 11:44:00,
2013-04-10 12:49:00,42.6,36.2,29.26,East,90,0.0,0.0,78,0.00,CLR,SKC,0.06,WeatherDisplay:10.37,2013-04-10 11:49:00,
2013-04-10 12:54:00,42.6,36.6,29.26,SE,135,0.0,0.0,79,0.00,CLR,SKC,0.06,WeatherDisplay:10.37,2013-04-10 11:54:00,
2013-04-10 12:59:00,42.6,36.2,29.26,East,90,0.0,0.0,78,0.00,CLR,SKC,0.06,WeatherDisplay:10.37,2013-04-10 11:59:00,
2013-04-10 13:04:00,43.0,36.6,29.26,SE,135,0.0,0.0,78,0.00,CLR,SKC,0.06,WeatherDisplay:10.37,2013-04-10 12:04:00,
2013-04-10 13:09:00,43.2,36.8,29.26,SSE,158,0.0,0.0,78,0.00,CLR,SKC,0.06,WeatherDisplay:10.37,2013-04-10 12:09:00,
2013-04-10 13:14:00,43.5,37.1,29.26,ESE,112,0.0,0.0,78,0.00,CLR,SKC,0.06,WeatherDisplay:10.37,2013-04-10 12:14:00,
2013-04-10 13:19:00,43.7,37.3,29.26,East,90,0.0,0.0,78,0.00,CLR,SKC,0.06,WeatherDisplay:10.37,2013-04-10 12:19:00,
2013-04-10 13:24:00,44.1,37.3,29.25,ESE,112,0.0,0.0,77,0.00,CLR,SKC,0.06,WeatherDisplay:10.37,2013-04-10 12:24:00,
2013-04-10 13:29:00,44.2,37.5,29.25,ESE,112,0.0,0.0,77,0.00,CLR,SKC,0.06,WeatherDisplay:10.37,2013-04-10 12:29:00,
2013-04-10 13:34:00,44.2,37.2,29.25,SSE,158,0.0,0.0,76,0.00,CLR,SKC,0.06,WeatherDisplay:10.37,2013-04-10 12:34:00,
2013-04-10 13:39:00,44.1,37.0,29.25,East,90,0.0,0.0,76,0.00,CLR,SKC,0.06,WeatherDisplay:10.37,2013-04-10 12:39:00,
2013-04-10 13:44:00,43.7,36.6,29.25,SE,135,0.0,0.0,76,0.00,CLR,SKC,0.06,WeatherDisplay:10.37,2013-04-10 12:44:00,
2013-04-10 13:49:00,43.9,36.8,29.25,East,90,0.0,0.0,76,0.00,CLR,SKC,0.06,WeatherDisplay:10.37,2013-04-10 12:49:00,
2013-04-10 13:54:00,44.2,37.2,29.25,SE,135,0.0,0.0,76,0.00,CLR,SKC,0.06,WeatherDisplay:10.37,2013-04-10 12:54:00,
2013-04-10 13:59:00,44.4,37.3,29.25,East,90,0.0,0.0,76,0.00,CLR,SKC,0.06,WeatherDisplay:10.37,2013-04-10 12:59:00,
2013-04-10 14:04:00,44.6,37.2,29.25,SE,135,0.0,0.0,75,0.00,CLR,SKC,0.06,WeatherDisplay:10.37,2013-04-10 13:04:00,
2013-04-10 14:09:00,45.0,37.2,29.24,SE,135,0.0,0.0,74,0.00,CLR,SKC,0.06,WeatherDisplay:10.37,2013-04-10 13:09:00,
2013-04-10 14:14:00,45.1,37.3,29.24,ESE,112,0.0,0.0,74,0.00,CLR,SKC,0.06,WeatherDisplay:10.37,2013-04-10 13:14:00,
2013-04-10 14:19:00,45.1,37.3,29.24,SE,135,0.0,0.0,74,0.00,CLR,SKC,0.06,WeatherDisplay:10.37,2013-04-10 13:19:00,
2013-04-10 14:24:00,45.1,37.3,29.24,SSW,202,0.0,0.0,74,0.00,CLR,SKC,0.06,WeatherDisplay:10.37,2013-04-10 13:24:00,
2013-04-10 14:29:00,45.3,37.5,29.24,East,90,0.0,0.0,74,0.00,CLR,SKC,0.06,WeatherDisplay:10.37,2013-04-10 13:29:00,
2013-04-10 14:34:00,45.1,37.3,29.24,ESE,112,0.0,0.0,74,0.00,CLR,SKC,0.06,WeatherDisplay:10.37,2013-04-10 13:34:00,
2013-04-10 14:39:00,45.1,37.3,29.24,SE,135,0.0,0.0,74,0.00,CLR,SKC,0.06,WeatherDisplay:10.37,2013-04-10 13:39:00,
2013-04-10 14:44:00,45.0,37.2,29.23,ESE,112,0.0,0.0,74,0.00,CLR,SKC,0.06,WeatherDisplay:10.37,2013-04-10 13:44:00,
2013-04-10 14:49:00,45.3,37.5,29.24,East,90,0.0,0.0,74,0.00,CLR,SKC,0.06,WeatherDisplay:10.37,2013-04-10 13:49:00,
2013-04-10 14:54:00,45.5,37.3,29.24,East,90,0.0,0.0,73,0.00,CLR,SKC,0.06,WeatherDisplay:10.37,2013-04-10 13:54:00,
2013-04-10 14:59:00,45.5,37.3,29.23,ESE,112,0.0,0.0,73,0.00,CLR,SKC,0.06,WeatherDisplay:10.37,2013-04-10 13:59:00,
2013-04-10 15:04:00,45.3,37.5,29.24,ESE,112,0.0,0.0,74,0.00,CLR,SKC,0.06,WeatherDisplay:10.37,2013-04-10 14:04:00,
2013-04-10 15:09:00,45.1,37.3,29.24,SSE,158,0.0,0.0,74,0.00,CLR,SKC,0.06,WeatherDisplay:10.37,2013-04-10 14:09:00,
2013-04-10 15:14:00,45.1,37.3,29.24,ESE,112,0.0,0.0,74,0.00,CLR,SKC,0.06,WeatherDisplay:10.37,2013-04-10 14:14:00,
2013-04-10 15:19:00,45.1,37.3,29.23,ESE,112,0.0,0.0,74,0.00,CLR,SKC,0.06,WeatherDisplay:10.37,2013-04-10 14:19:00,
2013-04-10 15:24:00,45.1,37.0,29.23,SE,135,0.0,0.0,73,0.00,CLR,SKC,0.06,WeatherDisplay:10.37,2013-04-10 14:24:00,
2013-04-10 15:29:00,45.0,36.8,29.24,ESE,112,0.0,0.0,73,0.00,CLR,SKC,0.06,WeatherDisplay:10.37,2013-04-10 14:29:00,
2013-04-10 15:34:00,44.8,36.7,29.23,SE,135,0.0,0.0,73,0.00,CLR,SKC,0.06,WeatherDisplay:10.37,2013-04-10 14:34:00,
2013-04-10 15:39:00,44.6,36.5,29.23,SE,135,0.0,0.0,73,0.00,CLR,SKC,0.06,WeatherDisplay:10.37,2013-04-10 14:39:00,
2013-04-10 15:44:00,44.4,36.3,29.23,SSE,158,0.0,0.0,73,0.00,CLR,SKC,0.06,WeatherDisplay:10.37,2013-04-10 14:44:00,
2013-04-10 15:49:00,44.8,36.7,29.23,ESE,112,0.0,0.0,73,0.00,CLR,SKC,0.06,WeatherDisplay:10.37,2013-04-10 14:49:00,
2013-04-10 15:54:00,45.0,36.8,29.23,East,90,0.0,0.0,73,0.00,CLR,SKC,0.06,WeatherDisplay:10.37,2013-04-10 14:54:00,
2013-04-10 15:59:00,45.3,37.2,29.23,ESE,112,0.0,0.0,73,0.00,CLR,SKC,0.06,WeatherDisplay:10.37,2013-04-10 14:59:00,
2013-04-10 16:04:00,45.3,36.8,29.22,SE,135,0.0,0.0,72,0.00,CLR,SKC,0.06,WeatherDisplay:10.37,2013-04-10 15:04:00,
2013-04-10 16:09:00,45.5,37.3,29.22,ESE,112,0.0,0.0,73,0.00,CLR,SKC,0.06,WeatherDisplay:10.37,2013-04-10 15:09:00,
2013-04-10 16:14:00,45.7,37.2,29.22,SE,135,0.0,0.0,72,0.00,CLR,SKC,0.06,WeatherDisplay:10.37,2013-04-10 15:14:00,
2013-04-10 16:19:00,46.2,37.7,29.22,ESE,112,0.0,0.0,72,0.00,CLR,SKC,0.06,WeatherDisplay:10.37,2013-04-10 15:19:00,
2013-04-10 16:24:00,46.6,38.0,29.22,East,90,0.0,0.0,72,0.00,CLR,SKC,0.06,WeatherDisplay:10.37,2013-04-10 15:24:00,
2013-04-10 16:29:00,46.6,38.0,29.21,South,180,0.0,0.0,72,0.00,CLR,SKC,0.06,WeatherDisplay:10.37,2013-04-10 15:29:00,
2013-04-10 16:34:00,46.6,38.0,29.21,ESE,112,0.0,0.0,72,0.00,CLR,SKC,0.06,WeatherDisplay:10.37,2013-04-10 15:34:00,
2013-04-10 16:39:00,46.2,37.7,29.22,ESE,112,0.0,0.0,72,0.00,CLR,SKC,0.06,WeatherDisplay:10.37,2013-04-10 15:39:00,
2013-04-10 16:44:00,46.0,37.9,29.22,SE,135,0.0,0.0,73,0.00,CLR,SKC,0.06,WeatherDisplay:10.37,2013-04-10 15:44:00,
2013-04-10 16:49:00,45.7,37.5,29.21,ESE,112,0.0,0.0,73,0.00,CLR,SKC,0.06,WeatherDisplay:10.37,2013-04-10 15:49:00,
2013-04-10 16:54:00,45.1,37.0,29.21,ESE,112,0.0,0.0,73,0.00,CLR,SKC,0.06,WeatherDisplay:10.37,2013-04-10 15:54:00,
2013-04-10 16:59:00,45.1,37.3,29.21,SE,135,0.0,0.0,74,0.00,CLR,SKC,0.06,WeatherDisplay:10.37,2013-04-10 15:59:00,
2013-04-10 17:04:00,45.0,37.5,29.21,East,90,0.0,0.0,75,0.00,CLR,SKC,0.06,WeatherDisplay:10.37,2013-04-10 16:04:00,
2013-04-10 17:09:00,44.6,37.2,29.21,ENE,68,0.0,0.0,75,0.00,CLR,SKC,0.06,WeatherDisplay:10.37,2013-04-10 16:09:00,
2013-04-10 17:15:00,44.2,36.8,29.21,ESE,112,0.0,0.0,75,0.00,CLR,SKC,0.06,WeatherDisplay:10.37,2013-04-10 16:15:00,
2013-04-10 17:20:00,44.1,37.0,29.21,ESE,112,0.0,0.0,76,0.00,CLR,SKC,0.06,WeatherDisplay:10.37,2013-04-10 16:20:00,
2013-04-10 17:25:00,44.1,37.0,29.21,ESE,118,0.0,0.0,76,0.00,CLR,SKC,0.06,WeatherDisplay:10.37,2013-04-10 16:25:00,
2013-04-10 17:30:00,43.9,36.8,29.21,SE,135,0.0,0.0,76,0.00,CLR,SKC,0.06,WeatherDisplay:10.37,2013-04-10 16:30:00,
2013-04-10 17:35:00,44.1,37.0,29.21,SE,130,0.0,0.0,76,0.00,CLR,SKC,0.06,WeatherDisplay:10.37,2013-04-10 16:35:00,
2013-04-10 17:40:00,43.7,36.6,29.20,SE,135,0.0,0.0,76,0.00,CLR,SKC,0.06,WeatherDisplay:10.37,2013-04-10 16:40:00,
2013-04-10 17:45:00,43.5,36.8,29.20,ENE,68,0.0,0.0,77,0.00,CLR,SKC,0.06,WeatherDisplay:10.37,2013-04-10 16:45:00,
2013-04-10 17:50:00,43.3,36.6,29.20,East,90,0.0,0.0,77,0.00,CLR,SKC,0.06,WeatherDisplay:10.37,2013-04-10 16:50:00,
2013-04-10 17:55:00,43.2,36.8,29.20,East,90,0.0,0.0,78,0.00,CLR,SKC,0.06,WeatherDisplay:10.37,2013-04-10 16:55:00,
2013-04-10 18:00:00,43.0,36.6,29.20,ESE,112,0.0,0.0,78,0.00,CLR,SKC,0.06,WeatherDisplay:10.37,2013-04-10 17:00:00,
2013-04-10 18:05:00,42.6,36.2,29.20,ESE,112,0.0,0.0,78,0.00,CLR,SKC,0.06,WeatherDisplay:10.37,2013-04-10 17:05:00,
2013-04-10 18:10:00,42.8,36.7,29.20,ESE,112,0.0,0.0,79,0.00,CLR,SKC,0.06,WeatherDisplay:10.37,2013-04-10 17:10:00,
2013-04-10 18:15:00,42.8,36.7,29.20,ENE,68,0.0,0.0,79,0.00,CLR,SKC,0.06,WeatherDisplay:10.37,2013-04-10 17:15:00,
2013-04-10 18:20:00,42.6,36.6,29.20,ENE,68,0.0,0.0,79,0.00,CLR,SKC,0.06,WeatherDisplay:10.37,2013-04-10 17:20:00,
2013-04-10 18:25:00,42.6,36.6,29.20,East,90,0.0,0.0,79,0.00,CLR,SKC,0.06,WeatherDisplay:10.37,2013-04-10 17:25:00,
2013-04-10 18:30:00,42.6,36.6,29.20,ESE,112,0.0,0.0,79,0.00,CLR,SKC,0.06,WeatherDisplay:10.37,2013-04-10 17:30:00,
2013-04-10 18:35:00,42.6,36.6,29.20,ESE,112,0.0,0.0,79,0.00,CLR,SKC,0.06,WeatherDisplay:10.37,2013-04-10 17:35:00,
2013-04-10 18:40:00,42.6,36.6,29.20,ESE,112,0.0,0.0,79,0.00,CLR,SKC,0.06,WeatherDisplay:10.37,2013-04-10 17:40:00,
2013-04-10 18:45:00,42.6,36.6,29.20,SSW,202,0.0,0.0,79,0.00,CLR,SKC,0.06,WeatherDisplay:10.37,2013-04-10 17:45:00,
2013-04-10 18:50:00,42.4,36.7,29.20,ESE,112,0.0,0.0,80,0.00,CLR,SKC,0.06,WeatherDisplay:10.37,2013-04-10 17:50:00,
2013-04-10 18:55:00,42.4,36.7,29.20,ESE,112,0.0,0.0,80,0.00,CLR,SKC,0.06,WeatherDisplay:10.37,2013-04-10 17:55:00,
2013-04-10 19:00:00,42.1,36.4,29.20,ESE,112,0.0,0.0,80,0.00,CLR,SKC,0.06,WeatherDisplay:10.37,2013-04-10 18:00:00,
2013-04-10 19:05:00,41.9,36.2,29.20,ESE,112,0.0,0.0,80,0.00,CLR,SKC,0.06,WeatherDisplay:10.37,2013-04-10 18:05:00,
2013-04-10 19:10:00,41.7,36.3,29.19,SE,135,0.0,0.0,81,0.00,CLR,SKC,0.06,WeatherDisplay:10.37,2013-04-10 18:10:00,
2013-04-10 19:15:00,41.7,36.3,29.20,ENE,68,0.0,0.0,81,0.00,CLR,SKC,0.06,WeatherDisplay:10.37,2013-04-10 18:15:00,
2013-04-10 19:20:00,41.7,36.3,29.19,East,90,0.0,0.0,81,0.00,CLR,SKC,0.06,WeatherDisplay:10.37,2013-04-10 18:20:00,
2013-04-10 19:25:00,41.7,36.3,29.19,SE,135,0.0,0.0,81,0.00,CLR,SKC,0.06,WeatherDisplay:10.37,2013-04-10 18:25:00,
2013-04-10 19:30:00,41.5,36.1,29.19,ESE,112,0.0,0.0,81,0.00,CLR,SKC,0.06,WeatherDisplay:10.37,2013-04-10 18:30:00,
2013-04-10 19:35:00,41.4,36.0,29.19,East,90,0.0,0.0,81,0.00,CLR,SKC,0.06,WeatherDisplay:10.37,2013-04-10 18:35:00,
2013-04-10 19:40:00,41.4,36.0,29.19,East,90,0.0,0.0,81,0.00,CLR,SKC,0.06,WeatherDisplay:10.37,2013-04-10 18:40:00,
2013-04-10 19:45:00,41.2,36.1,29.19,SE,135,0.0,0.0,82,0.00,CLR,SKC,0.06,WeatherDisplay:10.37,2013-04-10 18:45:00,
2013-04-10 19:50:00,40.8,35.7,29.19,ESE,112,0.0,0.0,82,0.00,CLR,SKC,0.06,WeatherDisplay:10.37,2013-04-10 18:50:00,
2013-04-10 19:55:00,40.6,35.6,29.20,SE,135,0.0,0.0,82,0.00,CLR,SKC,0.06,WeatherDisplay:10.37,2013-04-10 18:55:00,
2013-04-10 20:00:00,40.6,35.6,29.20,ESE,112,0.0,0.0,82,0.00,CLR,SKC,0.06,WeatherDisplay:10.37,2013-04-10 19:00:00,
2013-04-10 20:05:00,40.5,35.4,29.20,SE,135,0.0,0.0,82,0.00,CLR,SKC,0.06,WeatherDisplay:10.37,2013-04-10 19:05:00,
2013-04-10 20:10:00,40.3,35.5,29.20,East,90,0.0,0.0,83,0.00,CLR,SKC,0.06,WeatherDisplay:10.37,2013-04-10 19:10:00,
2013-04-10 20:15:00,40.1,35.4,29.20,East,90,0.0,0.0,83,0.00,CLR,SKC,0.06,WeatherDisplay:10.37,2013-04-10 19:15:00,
2013-04-10 20:20:00,40.1,35.4,29.20,East,90,0.0,0.0,83,0.00,CLR,SKC,0.06,WeatherDisplay:10.37,2013-04-10 19:20:00,
2013-04-10 20:25:00,39.9,35.5,29.20,ESE,112,0.0,0.0,84,0.00,CLR,SKC,0.06,WeatherDisplay:10.37,2013-04-10 19:25:00,
2013-04-10 20:30:00,39.9,35.5,29.20,ESE,112,0.0,0.0,84,0.00,CLR,SKC,0.06,WeatherDisplay:10.37,2013-04-10 19:30:00,
2013-04-10 20:35:00,39.7,35.3,29.20,SE,135,0.0,0.0,84,0.00,CLR,SKC,0.06,WeatherDisplay:10.37,2013-04-10 19:35:00,
2013-04-10 20:40:00,39.7,35.3,29.20,SE,135,0.0,0.0,84,0.00,CLR,SKC,0.06,WeatherDisplay:10.37,2013-04-10 19:40:00,
2013-04-10 20:45:00,39.7,35.3,29.20,ESE,112,0.0,0.0,84,0.00,CLR,SKC,0.06,WeatherDisplay:10.37,2013-04-10 19:45:00,
2013-04-10 20:50:00,39.6,35.1,29.19,ESE,112,0.0,0.0,84,0.00,CLR,SKC,0.06,WeatherDisplay:10.37,2013-04-10 19:50:00,
2013-04-10 20:55:00,39.6,35.1,29.19,ESE,112,0.0,0.0,84,0.00,CLR,SKC,0.06,WeatherDisplay:10.37,2013-04-10 19:55:00,
2013-04-10 21:00:00,39.6,35.4,29.19,ESE,112,0.0,0.0,85,0.00,CLR,SKC,0.06,WeatherDisplay:10.37,2013-04-10 20:00:00,
2013-04-10 21:05:00,39.6,35.4,29.19,SE,135,0.0,0.0,85,0.00,CLR,SKC,0.06,WeatherDisplay:10.37,2013-04-10 20:05:00,
2013-04-10 21:10:00,39.6,35.4,29.20,ESE,112,0.0,0.0,85,0.00,CLR,SKC,0.06,WeatherDisplay:10.37,2013-04-10 20:10:00,
2013-04-10 21:15:00,39.6,35.4,29.20,ESE,112,0.0,0.0,85,0.00,CLR,SKC,0.06,WeatherDisplay:10.37,2013-04-10 20:15:00,
2013-04-10 21:20:00,39.6,35.4,29.20,East,90,0.0,0.0,85,0.00,CLR,SKC,0.06,WeatherDisplay:10.37,2013-04-10 20:20:00,
2013-04-10 21:25:00,39.6,35.4,29.20,ESE,112,0.0,0.0,85,0.00,CLR,SKC,0.06,WeatherDisplay:10.37,2013-04-10 20:25:00,
2013-04-10 21:30:00,39.7,35.6,29.20,East,90,0.0,0.0,85,0.00,CLR,SKC,0.06,WeatherDisplay:10.37,2013-04-10 20:30:00,
2013-04-10 21:35:00,39.7,35.6,29.20,East,90,0.0,0.0,85,0.00,CLR,SKC,0.06,WeatherDisplay:10.37,2013-04-10 20:35:00,
2013-04-10 21:40:00,39.7,35.6,29.19,East,90,0.0,0.0,85,0.00,CLR,SKC,0.06,WeatherDisplay:10.37,2013-04-10 20:40:00,
2013-04-10 21:45:00,39.7,35.6,29.19,ESE,112,0.0,0.0,85,0.00,CLR,SKC,0.06,WeatherDisplay:10.37,2013-04-10 20:45:00,
2013-04-10 21:50:00,39.7,35.6,29.19,East,90,0.0,0.0,85,0.00,CLR,SKC,0.06,WeatherDisplay:10.37,2013-04-10 20:50:00,
2013-04-10 21:56:00,39.7,35.6,29.20,SE,135,0.0,0.0,85,0.00,CLR,SKC,0.06,WeatherDisplay:10.37,2013-04-10 20:56:00,
2013-04-10 22:01:00,39.7,35.6,29.20,East,90,0.0,0.0,85,0.00,CLR,SKC,0.06,WeatherDisplay:10.37,2013-04-10 21:01:00,
2013-04-10 22:06:00,39.7,35.6,29.20,East,90,0.0,0.0,85,0.00,CLR,SKC,0.06,WeatherDisplay:10.37,2013-04-10 21:06:00,
2013-04-10 22:11:00,39.7,35.6,29.20,ESE,112,0.0,0.0,85,0.00,CLR,SKC,0.06,WeatherDisplay:10.37,2013-04-10 21:11:00,
2013-04-10 22:16:00,39.7,35.6,29.20,ESE,112,0.0,0.0,85,0.00,CLR,SKC,0.06,WeatherDisplay:10.37,2013-04-10 21:16:00,
2013-04-10 22:21:00,39.7,35.6,29.19,ESE,112,0.0,0.0,85,0.00,CLR,SKC,0.06,WeatherDisplay:10.37,2013-04-10 21:21:00,
2013-04-10 22:26:00,39.7,35.6,29.19,ESE,112,0.0,0.0,85,0.00,CLR,SKC,0.06,WeatherDisplay:10.37,2013-04-10 21:26:00,
2013-04-10 22:31:00,39.7,35.6,29.19,SE,135,0.0,0.0,85,0.00,CLR,SKC,0.06,WeatherDisplay:10.37,2013-04-10 21:31:00,
2013-04-10 22:36:00,39.7,35.3,29.19,ESE,112,0.0,0.0,84,0.00,CLR,SKC,0.06,WeatherDisplay:10.37,2013-04-10 21:36:00,
2013-04-10 22:41:00,39.7,35.3,29.19,ESE,112,0.0,0.0,84,0.00,CLR,SKC,0.06,WeatherDisplay:10.37,2013-04-10 21:41:00,
2013-04-10 22:46:00,39.7,35.3,29.19,SE,135,0.0,0.0,84,0.00,CLR,SKC,0.06,WeatherDisplay:10.37,2013-04-10 21:46:00,
2013-04-10 22:52:00,39.7,35.3,29.19,ESE,112,0.0,0.0,84,0.00,CLR,SKC,0.06,WeatherDisplay:10.37,2013-04-10 21:52:00,
2013-04-10 22:57:00,39.7,35.3,29.19,ESE,112,0.0,0.0,84,0.00,CLR,SKC,0.06,WeatherDisplay:10.37,2013-04-10 21:57:00,
2013-04-10 23:02:00,39.7,35.6,29.19,ESE,112,0.0,0.0,85,0.00,CLR,SKC,0.06,WeatherDisplay:10.37,2013-04-10 22:02:00,
2013-04-10 23:07:00,39.6,35.1,29.18,East,90,0.0,0.0,84,0.00,CLR,SKC,0.06,WeatherDisplay:10.37,2013-04-10 22:07:00,
2013-04-10 23:12:00,39.6,35.1,29.18,SE,135,0.0,0.0,84,0.00,CLR,SKC,0.06,WeatherDisplay:10.37,2013-04-10 22:12:00,
2013-04-10 23:17:00,39.6,35.1,29.18,ESE,112,0.0,0.0,84,0.00,CLR,SKC,0.06,WeatherDisplay:10.37,2013-04-10 22:17:00,
2013-04-10 23:22:00,39.6,35.1,29.18,ESE,112,0.0,0.0,84,0.00,CLR,SKC,0.06,WeatherDisplay:10.37,2013-04-10 22:22:00,
2013-04-10 23:27:00,39.4,34.9,29.18,East,90,0.0,0.0,84,0.00,CLR,SKC,0.06,WeatherDisplay:10.37,2013-04-10 22:27:00,
2013-04-10 23:32:00,39.6,35.4,29.18,East,90,0.0,0.0,85,0.00,CLR,SKC,0.06,WeatherDisplay:10.37,2013-04-10 22:32:00,
2013-04-10 23:37:00,39.6,35.4,29.18,SE,135,0.0,0.0,85,0.00,CLR,SKC,0.06,WeatherDisplay:10.37,2013-04-10 22:37:00,
2013-04-10 23:42:00,39.6,35.4,29.18,ESE,112,0.0,0.0,85,0.00,CLR,SKC,0.06,WeatherDisplay:10.37,2013-04-10 22:42:00,
2013-04-10 23:47:00,39.6,35.1,29.18,SE,135,0.0,0.0,84,0.00,CLR,SKC,0.06,WeatherDisplay:10.37,2013-04-10 22:47:00,
2013-04-10 23:52:00,39.6,35.1,29.18,SE,135,0.0,0.0,84,0.00,CLR,SKC,0.06,WeatherDisplay:10.37,2013-04-10 22:52:00,
2013-04-10 23:57:00,39.4,35.2,29.18,ESE,112,0.0,0.0,85,0.00,CLR,SKC,0.06,WeatherDisplay:10.37,2013-04-10 22:57:00,